createdAt,value
2016-09-29T00:00:08.656Z,90.14
2016-09-29T00:01:08.688Z,90
2016-09-29T00:02:08.391Z,90.71
2016-09-29T00:03:08.737Z,90.38
2016-09-29T00:04:08.744Z,90.19
2016-09-29T00:05:08.783Z,90.09
2016-09-29T00:06:08.784Z,90.47
2016-09-29T00:07:08.504Z,90.28
2016-09-29T00:08:08.848Z,90.09
2016-09-29T00:09:08.860Z,90.76
2016-09-29T00:10:08.881Z,90.86
2016-09-29T00:11:08.935Z,91.34
2016-09-29T00:12:08.615Z,90.76
2016-09-29T00:13:09.072Z,90.38
2016-09-29T00:14:09.072Z,90.86
2016-09-29T00:15:09.072Z,91.24
2016-09-29T00:16:09.035Z,91.14
2016-09-29T00:17:09.148Z,90.67
2016-09-29T00:18:08.802Z,90.86
2016-09-29T00:19:09.082Z,91.14
2016-09-29T00:20:08.898Z,91.14
2016-09-29T00:21:09.135Z,91.14
2016-09-29T00:22:09.145Z,91.05
2016-09-29T00:23:09.225Z,91.05
2016-09-29T00:24:09.202Z,91.43
2016-09-29T00:25:08.912Z,91.05
2016-09-29T00:26:09.054Z,90.76
2016-09-29T00:27:08.953Z,90.76
2016-09-29T00:28:09.391Z,90.86
2016-09-29T00:29:09.003Z,90.86
2016-09-29T00:30:09.322Z,90.9
2016-09-29T00:31:09.347Z,90.23
2016-09-29T00:32:09.373Z,90.86
2016-09-29T00:33:09.412Z,90.09
2016-09-29T00:34:09.115Z,90.42
2016-09-29T00:35:09.444Z,90.81
2016-09-29T00:36:09.153Z,90.52
2016-09-29T00:37:09.615Z,90.61
2016-09-29T00:38:09.510Z,90.52
2016-09-29T00:39:09.553Z,90.33
2016-09-29T00:40:09.561Z,90.33
2016-09-29T00:41:09.572Z,90.47
2016-09-29T00:42:09.606Z,90.42
2016-09-29T00:43:09.623Z,90.14
2016-09-29T00:44:09.658Z,90.33
2016-09-29T00:45:09.673Z,90.47
2016-09-29T00:46:09.700Z,90.23
2016-09-29T00:47:09.720Z,90.76
2016-09-29T00:48:09.425Z,91.38
2016-09-29T00:49:09.773Z,90.71
2016-09-29T00:50:09.464Z,90.52
2016-09-29T00:51:09.816Z,90.61
2016-09-29T00:52:09.514Z,90.81
2016-09-29T00:53:09.544Z,90.38
2016-09-29T00:54:09.873Z,90.52
2016-09-29T00:55:09.582Z,90.95
2016-09-29T00:56:09.925Z,91.48
2016-09-29T00:57:09.632Z,91.48
2016-09-29T00:58:09.961Z,91.48
2016-09-29T00:59:09.994Z,91.28
2016-09-29T01:00:10.024Z,91.48
2016-09-29T01:01:09.723Z,90.9
2016-09-29T01:02:10.058Z,91.05
2016-09-29T01:03:10.072Z,91.05
2016-09-29T01:04:10.112Z,91.28
2016-09-29T01:05:09.806Z,90.9
2016-09-29T01:06:10.158Z,91.28
2016-09-29T01:07:10.176Z,91.38
2016-09-29T01:08:10.190Z,90.61
2016-09-29T01:09:10.223Z,91.09
2016-09-29T01:10:09.935Z,91.24
2016-09-29T01:11:10.301Z,90.95
2016-09-29T01:12:10.281Z,91.05
2016-09-29T01:13:10.353Z,91.09
2016-09-29T01:14:10.335Z,91.38
2016-09-29T01:15:10.353Z,91.19
2016-09-29T01:16:10.373Z,90.9
2016-09-29T01:17:10.395Z,91.48
2016-09-29T01:18:10.411Z,90.81
2016-09-29T01:19:10.133Z,91.48
2016-09-29T01:20:10.463Z,91.19
2016-09-29T01:21:10.183Z,91.38
2016-09-29T01:22:10.503Z,91.09
2016-09-29T01:23:10.531Z,91.28
2016-09-29T01:24:10.249Z,91.38
2016-09-29T01:25:10.571Z,90.9
2016-09-29T01:26:10.601Z,91.48
2016-09-29T01:27:10.611Z,91.38
2016-09-29T01:28:10.344Z,91.38
2016-09-29T01:29:10.676Z,91.38
2016-09-29T01:30:10.692Z,91.09
2016-09-29T01:31:10.704Z,91
2016-09-29T01:32:10.422Z,90.9
2016-09-29T01:33:10.764Z,91.09
2016-09-29T01:34:10.779Z,91.09
2016-09-29T01:35:10.803Z,91.09
2016-09-29T01:36:10.903Z,91.28
2016-09-29T01:37:10.853Z,90.9
2016-09-29T01:38:10.974Z,91.34
2016-09-29T01:39:10.583Z,91.38
2016-09-29T01:40:10.913Z,91.19
2016-09-29T01:41:10.931Z,90.9
2016-09-29T01:42:10.950Z,90.81
2016-09-29T01:43:10.993Z,90.61
2016-09-29T01:44:11.004Z,90.33
2016-09-29T01:45:11.022Z,90.61
2016-09-29T01:46:11.044Z,90.71
2016-09-29T01:47:10.850Z,91.19
2016-09-29T01:48:11.108Z,91.19
2016-09-29T01:49:11.222Z,91.28
2016-09-29T01:50:11.214Z,91.57
2016-09-29T01:51:11.178Z,91.19
2016-09-29T01:52:11.183Z,90.9
2016-09-29T01:53:10.901Z,91
2016-09-29T01:54:11.228Z,91.09
2016-09-29T01:55:11.252Z,91.38
2016-09-29T01:56:11.280Z,91.19
2016-09-29T01:57:10.990Z,91
2016-09-29T01:58:11.371Z,91.09
2016-09-29T01:59:11.351Z,91
2016-09-29T02:00:11.482Z,91
2016-09-29T02:01:11.381Z,91.09
2016-09-29T02:02:11.440Z,91.38
2016-09-29T02:03:11.121Z,91.57
2016-09-29T02:04:11.463Z,91.48
2016-09-29T02:05:11.492Z,91.38
2016-09-29T02:06:11.507Z,91.28
2016-09-29T02:07:11.537Z,91.28
2016-09-29T02:08:11.551Z,91.67
2016-09-29T02:09:11.589Z,91.57
2016-09-29T02:10:11.596Z,91.48
2016-09-29T02:11:11.311Z,91.77
2016-09-29T02:12:11.647Z,91.48
2016-09-29T02:13:11.759Z,91.28
2016-09-29T02:14:11.383Z,91
2016-09-29T02:15:11.403Z,91.38
2016-09-29T02:16:11.727Z,91
2016-09-29T02:17:11.751Z,91.38
2016-09-29T02:18:11.784Z,90.61
2016-09-29T02:19:11.792Z,91
2016-09-29T02:20:11.825Z,91.05
2016-09-29T02:21:11.847Z,90.81
2016-09-29T02:22:11.558Z,90.61
2016-09-29T02:23:11.633Z,90.81
2016-09-29T02:24:11.602Z,90.52
2016-09-29T02:25:11.951Z,90.71
2016-09-29T02:26:11.955Z,90.52
2016-09-29T02:27:11.981Z,90.23
2016-09-29T02:28:11.750Z,89.94
2016-09-29T02:29:12.019Z,89.65
2016-09-29T02:30:12.052Z,90.14
2016-09-29T02:31:12.063Z,90.52
2016-09-29T02:32:12.092Z,90.04
2016-09-29T02:33:12.123Z,90.61
2016-09-29T02:34:12.138Z,89.85
2016-09-29T02:35:12.157Z,89.94
2016-09-29T02:36:12.190Z,89.85
2016-09-29T02:37:12.213Z,89.85
2016-09-29T02:38:12.231Z,90.04
2016-09-29T02:39:12.263Z,90.23
2016-09-29T02:40:11.967Z,90.04
2016-09-29T02:41:12.296Z,89.94
2016-09-29T02:42:12.322Z,89.94
2016-09-29T02:43:12.080Z,89.94
2016-09-29T02:44:12.372Z,89.65
2016-09-29T02:45:12.487Z,89.65
2016-09-29T02:46:12.423Z,89.18
2016-09-29T02:47:12.121Z,89.47
2016-09-29T02:48:12.450Z,89.18
2016-09-29T02:49:12.480Z,89.47
2016-09-29T02:50:12.501Z,88.98
2016-09-29T02:51:12.207Z,89.47
2016-09-29T02:52:12.552Z,89.65
2016-09-29T02:53:12.572Z,90.23
2016-09-29T02:54:12.586Z,89.94
2016-09-29T02:55:12.629Z,89.94
2016-09-29T02:56:12.633Z,89.94
2016-09-29T02:57:12.672Z,89.94
2016-09-29T02:58:12.702Z,89.65
2016-09-29T02:59:12.711Z,89.37
2016-09-29T03:00:12.741Z,89.37
2016-09-29T03:01:12.751Z,88.98
2016-09-29T03:02:12.672Z,89.18
2016-09-29T03:03:13.073Z,89.27
2016-09-29T03:04:12.833Z,89.18
2016-09-29T03:05:12.850Z,89.27
2016-09-29T03:06:12.859Z,89.56
2016-09-29T03:07:12.879Z,89.27
2016-09-29T03:08:12.920Z,89.37
2016-09-29T03:09:12.952Z,88.7
2016-09-29T03:10:38.298Z,88.51
2016-09-29T03:11:13.028Z,88.7
2016-09-29T03:12:13.030Z,88.79
2016-09-29T03:13:13.041Z,89.18
2016-09-29T03:14:13.052Z,88.79
2016-09-29T03:15:12.780Z,88.7
2016-09-29T03:16:13.093Z,89.18
2016-09-29T03:17:12.955Z,88.89
2016-09-29T03:18:13.139Z,89.47
2016-09-29T03:19:12.977Z,89.47
2016-09-29T03:20:13.547Z,89.27
2016-09-29T03:21:13.384Z,89.37
2016-09-29T03:22:13.347Z,89.27
2016-09-29T03:23:13.403Z,89.23
2016-09-29T03:24:13.279Z,89.32
2016-09-29T03:25:13.511Z,89.23
2016-09-29T03:26:13.523Z,89.23
2016-09-29T03:27:13.448Z,89.23
2016-09-29T03:28:13.469Z,89.13
2016-09-29T03:29:13.490Z,89.42
2016-09-29T03:30:13.464Z,89.04
2016-09-29T03:31:13.493Z,88.94
2016-09-29T03:32:13.602Z,89.04
2016-09-29T03:33:13.541Z,89.23
2016-09-29T03:34:13.512Z,89.08
2016-09-29T03:35:13.541Z,89.37
2016-09-29T03:36:13.548Z,88.89
2016-09-29T03:37:13.586Z,88.51
2016-09-29T03:38:13.795Z,88.98
2016-09-29T03:39:13.621Z,88.89
2016-09-29T03:40:13.580Z,88.46
2016-09-29T03:41:13.721Z,88.7
2016-09-29T03:42:13.700Z,88.79
2016-09-29T03:43:13.412Z,88.7
2016-09-29T03:44:13.532Z,89.08
2016-09-29T03:45:13.807Z,89.08
2016-09-29T03:46:13.769Z,88.89
2016-09-29T03:47:13.851Z,88.98
2016-09-29T03:48:13.816Z,89.37
2016-09-29T03:49:13.634Z,89.42
2016-09-29T03:50:13.861Z,88.79
2016-09-29T03:51:13.580Z,89.08
2016-09-29T03:52:13.911Z,88.6
2016-09-29T03:53:13.943Z,88.89
2016-09-29T03:54:13.653Z,88.7
2016-09-29T03:55:13.989Z,88.89
2016-09-29T03:56:13.991Z,89.37
2016-09-29T03:57:14.017Z,88.89
2016-09-29T03:58:13.741Z,88.98
2016-09-29T03:59:14.276Z,88.98
2016-09-29T04:00:14.102Z,88.89
2016-09-29T04:01:14.112Z,88.7
2016-09-29T04:02:14.150Z,88.79
2016-09-29T04:03:14.222Z,88.6
2016-09-29T04:04:14.193Z,88.31
2016-09-29T04:05:14.203Z,87.74
2016-09-29T04:06:14.233Z,87.84
2016-09-29T04:07:14.251Z,87.59
2016-09-29T04:08:14.020Z,87.49
2016-09-29T04:09:14.299Z,86.82
2016-09-29T04:10:14.324Z,87.3
2016-09-29T04:11:14.348Z,87.11
2016-09-29T04:12:14.364Z,87.01
2016-09-29T04:13:14.396Z,86.54
2016-09-29T04:14:14.412Z,86.72
2016-09-29T04:15:14.123Z,86.82
2016-09-29T04:16:14.460Z,86.92
2016-09-29T04:17:14.495Z,86.19
2016-09-29T04:18:14.249Z,86.15
2016-09-29T04:19:14.220Z,85.96
2016-09-29T04:20:14.543Z,86.34
2016-09-29T04:21:14.581Z,86.48
2016-09-29T04:22:14.592Z,86.1
2016-09-29T04:23:14.462Z,86.19
2016-09-29T04:24:14.641Z,85.86
2016-09-29T04:25:14.668Z,85.77
2016-09-29T04:26:14.691Z,85.67
2016-09-29T04:27:14.710Z,85.42
2016-09-29T04:28:14.736Z,85.62
2016-09-29T04:29:14.778Z,85.62
2016-09-29T04:30:14.473Z,85.42
2016-09-29T04:31:14.793Z,85.81
2016-09-29T04:32:14.520Z,85.24
2016-09-29T04:33:14.910Z,85.52
2016-09-29T04:34:14.898Z,85.42
2016-09-29T04:35:14.585Z,85.62
2016-09-29T04:36:14.921Z,84.75
2016-09-29T04:37:14.940Z,85.24
2016-09-29T04:38:14.972Z,85.04
2016-09-29T04:39:14.992Z,84.66
2016-09-29T04:40:14.699Z,85.04
2016-09-29T04:41:14.724Z,85.14
2016-09-29T04:42:15.143Z,85.33
2016-09-29T04:43:15.193Z,85.14
2016-09-29T04:44:15.142Z,85.04
2016-09-29T04:45:15.185Z,84.47
2016-09-29T04:46:15.160Z,84.56
2016-09-29T04:47:15.180Z,84.27
2016-09-29T04:48:15.201Z,83.89
2016-09-29T04:49:15.215Z,83.89
2016-09-29T04:50:14.942Z,83.98
2016-09-29T04:51:15.274Z,84.37
2016-09-29T04:52:15.292Z,83.6
2016-09-29T04:53:15.331Z,83.89
2016-09-29T04:54:15.033Z,83.89
2016-09-29T04:55:15.452Z,83.7
2016-09-29T04:56:15.439Z,83.6
2016-09-29T04:57:15.460Z,84.08
2016-09-29T04:58:15.451Z,83.98
2016-09-29T04:59:15.461Z,83.22
2016-09-29T05:00:15.494Z,83.31
2016-09-29T05:01:15.506Z,83.26
2016-09-29T05:02:15.518Z,82.93
2016-09-29T05:03:15.546Z,83.03
2016-09-29T05:04:15.574Z,82.93
2016-09-29T05:05:15.598Z,83.03
2016-09-29T05:06:15.721Z,83.31
2016-09-29T05:07:15.636Z,83.31
2016-09-29T05:08:15.718Z,83.41
2016-09-29T05:09:15.387Z,83.98
2016-09-29T05:10:15.401Z,83.6
2016-09-29T05:11:15.743Z,83.8
2016-09-29T05:12:15.759Z,83.98
2016-09-29T05:13:15.788Z,83.41
2016-09-29T05:14:15.810Z,83.41
2016-09-29T05:15:15.870Z,83.03
2016-09-29T05:16:15.859Z,82.93
2016-09-29T05:17:15.908Z,82.93
2016-09-29T05:18:15.911Z,83.31
2016-09-29T05:19:15.917Z,83.31
2016-09-29T05:20:15.951Z,83.12
2016-09-29T05:21:15.975Z,82.93
2016-09-29T05:22:15.977Z,82.64
2016-09-29T05:23:16.020Z,82.74
2016-09-29T05:24:16.045Z,82.7
2016-09-29T05:25:16.069Z,83.03
2016-09-29T05:26:15.781Z,82.79
2016-09-29T05:27:16.111Z,82.16
2016-09-29T05:28:16.149Z,82.89
2016-09-29T05:29:16.371Z,82.64
2016-09-29T05:30:15.868Z,82.93
2016-09-29T05:31:16.220Z,82.89
2016-09-29T05:32:16.231Z,82.79
2016-09-29T05:33:16.241Z,82.89
2016-09-29T05:34:16.268Z,82.89
2016-09-29T05:35:15.985Z,82.89
2016-09-29T05:36:16.317Z,83.27
2016-09-29T05:37:16.347Z,82.98
2016-09-29T05:38:16.360Z,82.79
2016-09-29T05:39:16.077Z,82.51
2016-09-29T05:40:16.428Z,82.51
2016-09-29T05:41:16.441Z,82.31
2016-09-29T05:42:16.152Z,82.41
2016-09-29T05:43:16.717Z,82.51
2016-09-29T05:44:48.498Z,81.93
2016-09-29T05:45:16.866Z,82.03
2016-09-29T05:46:16.486Z,81.93
2016-09-29T05:47:16.837Z,82.03
2016-09-29T05:48:16.996Z,81.84
2016-09-29T05:49:16.737Z,81.84
2016-09-29T05:50:16.437Z,80.87
2016-09-29T05:51:16.823Z,80.97
2016-09-29T05:52:16.742Z,80.43
2016-09-29T05:53:16.829Z,80.43
2016-09-29T05:54:16.482Z,80.49
2016-09-29T05:55:16.766Z,80.3
2016-09-29T05:56:16.789Z,79.57
2016-09-29T05:57:16.509Z,79.05
2016-09-29T05:58:16.833Z,79.34
2016-09-29T05:59:16.554Z,79.34
2016-09-29T06:00:16.878Z,79.28
2016-09-29T06:01:16.589Z,79.09
2016-09-29T06:02:16.924Z,79.19
2016-09-29T06:03:16.987Z,78.77
2016-09-29T06:04:16.965Z,78.13
2016-09-29T06:05:16.686Z,78.47
2016-09-29T06:06:17.526Z,78.28
2016-09-29T06:07:17.042Z,77.51
2016-09-29T06:08:17.109Z,77.75
2016-09-29T06:09:16.772Z,76.84
2016-09-29T06:10:17.108Z,76.59
2016-09-29T06:11:17.116Z,76.88
2016-09-29T06:12:17.153Z,76.59
2016-09-29T06:13:17.311Z,76.59
2016-09-29T06:14:17.291Z,76.02
2016-09-29T06:15:17.214Z,76.02
2016-09-29T06:16:17.286Z,76.02
2016-09-29T06:17:17.374Z,76.59
2016-09-29T06:18:17.038Z,76.79
2016-09-29T06:19:17.347Z,76.69
2016-09-29T06:20:17.368Z,75.92
2016-09-29T06:21:17.058Z,76.12
2016-09-29T06:22:17.381Z,75.73
2016-09-29T06:23:17.408Z,75.73
2016-09-29T06:24:17.128Z,75.45
2016-09-29T06:25:17.457Z,75.45
2016-09-29T06:26:17.481Z,75.25
2016-09-29T06:27:17.198Z,75.25
2016-09-29T06:28:17.580Z,74.29
2016-09-29T06:29:17.545Z,74.1
2016-09-29T06:30:17.596Z,73.43
2016-09-29T06:31:17.602Z,73.62
2016-09-29T06:32:17.607Z,73.81
2016-09-29T06:33:17.626Z,73.37
2016-09-29T06:34:17.357Z,72.5
2016-09-29T06:35:17.686Z,72.69
2016-09-29T06:36:17.714Z,72.31
2016-09-29T06:37:17.738Z,72.02
2016-09-29T06:38:17.909Z,72.31
2016-09-29T06:39:17.466Z,72.02
2016-09-29T06:40:17.544Z,71.83
2016-09-29T06:41:17.825Z,71.64
2016-09-29T06:42:17.541Z,70.87
2016-09-29T06:43:17.880Z,70.87
2016-09-29T06:44:17.905Z,70.78
2016-09-29T06:45:17.927Z,71.48
2016-09-29T06:46:17.945Z,71.06
2016-09-29T06:47:17.968Z,71.45
2016-09-29T06:48:17.998Z,71.45
2016-09-29T06:49:18.015Z,71.25
2016-09-29T06:50:17.748Z,71.55
2016-09-29T06:51:17.763Z,71.25
2016-09-29T06:52:18.093Z,71.39
2016-09-29T06:53:18.318Z,71.25
2016-09-29T06:54:18.140Z,71.64
2016-09-29T06:55:18.168Z,71.35
2016-09-29T06:56:17.876Z,71.83
2016-09-29T06:57:18.208Z,71.35
2016-09-29T06:58:17.918Z,71.06
2016-09-29T06:59:17.956Z,71.45
2016-09-29T07:00:17.966Z,71.06
2016-09-29T07:01:18.294Z,70.78
2016-09-29T07:02:18.326Z,71.45
2016-09-29T07:03:18.352Z,71.35
2016-09-29T07:04:18.590Z,70.87
2016-09-29T07:05:18.408Z,71.35
2016-09-29T07:06:18.136Z,71.16
2016-09-29T07:07:18.452Z,71.45
2016-09-29T07:08:18.167Z,71.64
2016-09-29T07:09:18.506Z,71.87
2016-09-29T07:10:18.551Z,71.93
2016-09-29T07:11:18.539Z,71.06
2016-09-29T07:12:18.566Z,71.87
2016-09-29T07:13:18.279Z,71.87
2016-09-29T07:14:18.617Z,71.96
2016-09-29T07:15:18.331Z,71.55
2016-09-29T07:16:18.670Z,71.48
2016-09-29T07:17:18.698Z,71.39
2016-09-29T07:18:18.714Z,71.87
2016-09-29T07:19:18.431Z,71.77
2016-09-29T07:20:18.465Z,71.58
2016-09-29T07:21:18.779Z,71.39
2016-09-29T07:22:18.818Z,71.48
2016-09-29T07:23:18.890Z,71.1
2016-09-29T07:24:18.859Z,70.9
2016-09-29T07:25:18.567Z,71.67
2016-09-29T07:26:18.586Z,71.23
2016-09-29T07:27:18.932Z,70.94
2016-09-29T07:28:18.945Z,70.84
2016-09-29T07:29:18.979Z,70.56
2016-09-29T07:30:19.007Z,71.04
2016-09-29T07:31:19.036Z,70.75
2016-09-29T07:32:19.047Z,70.17
2016-09-29T07:33:18.823Z,71.14
2016-09-29T07:34:19.108Z,71.33
2016-09-29T07:35:19.180Z,71.42
2016-09-29T07:36:19.155Z,70.94
2016-09-29T07:37:19.189Z,71.23
2016-09-29T07:38:19.200Z,70.84
2016-09-29T07:39:19.228Z,71.33
2016-09-29T07:40:19.234Z,71.33
2016-09-29T07:41:18.960Z,71.14
2016-09-29T07:42:19.298Z,71.81
2016-09-29T07:43:19.310Z,71.33
2016-09-29T07:44:19.456Z,71.55
2016-09-29T07:45:19.058Z,71.42
2016-09-29T07:46:19.400Z,71.04
2016-09-29T07:47:19.100Z,71.14
2016-09-29T07:48:19.492Z,70.84
2016-09-29T07:49:19.496Z,70.5
2016-09-29T07:50:19.496Z,70.4
2016-09-29T07:51:19.521Z,71.08
2016-09-29T07:52:19.540Z,71.46
2016-09-29T07:53:19.298Z,71.46
2016-09-29T07:54:19.279Z,71.26
2016-09-29T07:55:19.622Z,71.55
2016-09-29T07:56:19.628Z,71.46
2016-09-29T07:57:19.361Z,70.59
2016-09-29T07:58:19.703Z,70.5
2016-09-29T07:59:19.396Z,70.5
2016-09-29T08:00:19.425Z,70.43
2016-09-29T08:01:19.781Z,70.82
2016-09-29T08:02:19.787Z,70.62
2016-09-29T08:03:19.871Z,69.95
2016-09-29T08:04:19.840Z,69.85
2016-09-29T08:05:19.860Z,69.79
2016-09-29T08:06:19.951Z,70.56
2016-09-29T08:07:19.609Z,70.18
2016-09-29T08:08:20.039Z,69.79
2016-09-29T08:09:19.973Z,69.79
2016-09-29T08:10:19.991Z,68.84
2016-09-29T08:11:20.008Z,69.22
2016-09-29T08:12:20.049Z,69.64
2016-09-29T08:13:20.069Z,69.25
2016-09-29T08:14:20.092Z,69.15
2016-09-29T08:15:20.321Z,69.25
2016-09-29T08:16:19.832Z,68.19
2016-09-29T08:17:20.171Z,68.48
2016-09-29T08:18:20.190Z,68.68
2016-09-29T08:19:19.911Z,68.77
2016-09-29T08:20:20.236Z,68.68
2016-09-29T08:21:20.271Z,68.96
2016-09-29T08:22:20.302Z,68.38
2016-09-29T08:23:20.307Z,68.19
2016-09-29T08:24:20.349Z,68.68
2016-09-29T08:25:20.373Z,69.35
2016-09-29T08:26:20.400Z,69.25
2016-09-29T08:27:20.432Z,68.96
2016-09-29T08:28:20.136Z,68.29
2016-09-29T08:29:20.469Z,69.15
2016-09-29T08:30:20.499Z,69.15
2016-09-29T08:31:20.523Z,68.29
2016-09-29T08:32:20.552Z,68.48
2016-09-29T08:33:20.786Z,68.42
2016-09-29T08:34:20.303Z,68.42
2016-09-29T08:35:20.326Z,67.74
2016-09-29T08:36:20.651Z,67.94
2016-09-29T08:37:20.360Z,67.36
2016-09-29T08:38:20.405Z,67.68
2016-09-29T08:39:20.730Z,68.26
2016-09-29T08:40:20.453Z,68.65
2016-09-29T08:41:20.798Z,67.49
2016-09-29T08:42:20.863Z,68.07
2016-09-29T08:43:20.532Z,67.94
2016-09-29T08:44:20.911Z,68.23
2016-09-29T08:45:20.904Z,68.13
2016-09-29T08:46:20.916Z,68.13
2016-09-29T08:47:20.943Z,68.32
2016-09-29T08:48:20.958Z,68.13
2016-09-29T08:49:20.993Z,67.36
2016-09-29T08:50:21.091Z,67
2016-09-29T08:51:20.745Z,66.52
2016-09-29T08:52:21.075Z,67.23
2016-09-29T08:53:21.213Z,66.46
2016-09-29T08:54:21.126Z,65.72
2016-09-29T08:55:21.182Z,64.86
2016-09-29T08:56:21.178Z,64.56
2016-09-29T08:57:21.204Z,64.18
2016-09-29T08:58:20.921Z,64.37
2016-09-29T08:59:21.253Z,63.31
2016-09-29T09:00:21.285Z,63.34
2016-09-29T09:01:21.316Z,63.43
2016-09-29T09:02:21.373Z,63.15
2016-09-29T09:03:21.211Z,63.43
2016-09-29T09:04:21.410Z,63.92
2016-09-29T09:05:21.107Z,64.01
2016-09-29T09:06:21.477Z,62.6
2016-09-29T09:07:21.472Z,62.7
2016-09-29T09:08:21.502Z,62.12
2016-09-29T09:09:21.536Z,62.02
2016-09-29T09:10:21.556Z,61.05
2016-09-29T09:11:21.284Z,61.15
2016-09-29T09:12:21.609Z,61.05
2016-09-29T09:13:21.702Z,61.34
2016-09-29T09:14:21.374Z,60.93
2016-09-29T09:15:21.693Z,61.63
2016-09-29T09:16:21.715Z,60.76
2016-09-29T09:17:21.732Z,60.96
2016-09-29T09:18:21.772Z,60.44
2016-09-29T09:19:21.485Z,61.02
2016-09-29T09:20:21.522Z,61.51
2016-09-29T09:21:21.877Z,61.22
2016-09-29T09:22:21.874Z,61.22
2016-09-29T09:23:21.946Z,60.73
2016-09-29T09:24:21.932Z,61.31
2016-09-29T09:25:21.709Z,61.7
2016-09-29T09:26:21.977Z,61.12
2016-09-29T09:27:22.017Z,61.51
2016-09-29T09:28:22.039Z,61.51
2016-09-29T09:29:22.068Z,61.7
2016-09-29T09:30:22.093Z,61.63
2016-09-29T09:31:22.113Z,61.22
2016-09-29T09:32:21.842Z,62.28
2016-09-29T09:33:21.916Z,61.41
2016-09-29T09:34:21.888Z,61.54
2016-09-29T09:35:21.924Z,61.7
2016-09-29T09:36:22.269Z,61.99
2016-09-29T09:37:22.283Z,61.99
2016-09-29T09:38:22.304Z,61.22
2016-09-29T09:39:22.346Z,61.89
2016-09-29T09:40:22.051Z,62.18
2016-09-29T09:41:22.394Z,62.66
2016-09-29T09:42:22.429Z,62.47
2016-09-29T09:43:22.652Z,61.12
2016-09-29T09:44:22.493Z,60.73
2016-09-29T09:45:22.506Z,61.89
2016-09-29T09:46:22.533Z,62.08
2016-09-29T09:47:22.574Z,62.73
2016-09-29T09:48:22.590Z,62.54
2016-09-29T09:49:22.613Z,63.5
2016-09-29T09:50:22.634Z,63.21
2016-09-29T09:51:22.663Z,63.5
2016-09-29T09:52:22.689Z,62.37
2016-09-29T09:53:22.809Z,62.08
2016-09-29T09:54:22.759Z,61.41
2016-09-29T09:55:22.464Z,61.31
2016-09-29T09:56:22.801Z,61.44
2016-09-29T09:57:22.528Z,59.73
2016-09-29T09:58:22.853Z,59.25
2016-09-29T09:59:22.891Z,59.44
2016-09-29T10:00:22.603Z,59.25
2016-09-29T10:01:22.944Z,59.05
2016-09-29T10:02:22.962Z,58.89
2016-09-29T10:03:23.103Z,56.88
2016-09-29T10:04:22.704Z,57.08
2016-09-29T10:05:22.745Z,57.28
2016-09-29T10:06:23.100Z,57.63
2016-09-29T10:07:22.810Z,56.95
2016-09-29T10:08:23.128Z,57.54
2016-09-29T10:09:23.165Z,57.73
2016-09-29T10:10:23.194Z,57.66
2016-09-29T10:11:23.211Z,57.56
2016-09-29T10:12:23.242Z,58.31
2016-09-29T10:13:23.272Z,57.82
2016-09-29T10:14:23.406Z,58.6
2016-09-29T10:15:23.345Z,58.98
2016-09-29T10:16:23.418Z,60.21
2016-09-29T10:17:23.073Z,60.02
2016-09-29T10:18:23.525Z,61.08
2016-09-29T10:19:23.125Z,61.15
2016-09-29T10:20:23.352Z,62.21
2016-09-29T10:21:23.180Z,62.66
2016-09-29T10:22:23.533Z,62.66
2016-09-29T10:23:23.555Z,63.73
2016-09-29T10:24:23.581Z,62.92
2016-09-29T10:25:23.694Z,63.31
2016-09-29T10:26:23.625Z,63.7
2016-09-29T10:27:23.693Z,64.72
2016-09-29T10:28:23.697Z,65.05
2016-09-29T10:29:23.714Z,65.05
2016-09-29T10:30:23.744Z,63.7
2016-09-29T10:31:23.763Z,64.86
2016-09-29T10:32:23.796Z,64.28
2016-09-29T10:33:23.822Z,64.37
2016-09-29T10:34:23.612Z,64.47
2016-09-29T10:35:23.882Z,65.05
2016-09-29T10:36:23.960Z,65.14
2016-09-29T10:37:23.619Z,66.4
2016-09-29T10:38:24.003Z,65.63
2016-09-29T10:39:23.683Z,66.3
2016-09-29T10:40:24.010Z,66.88
2016-09-29T10:41:24.051Z,66.94
2016-09-29T10:42:24.280Z,67.14
2016-09-29T10:43:24.093Z,68.01
2016-09-29T10:44:24.125Z,68.39
2016-09-29T10:45:24.154Z,67.52
2016-09-29T10:46:24.174Z,68.39
2016-09-29T10:47:24.190Z,68.68
2016-09-29T10:48:24.228Z,67.91
2016-09-29T10:49:24.252Z,67.75
2016-09-29T10:50:23.974Z,66.88
2016-09-29T10:51:24.303Z,65.82
2016-09-29T10:52:24.330Z,64.21
2016-09-29T10:53:24.354Z,64.34
2016-09-29T10:54:24.391Z,63.69
2016-09-29T10:55:24.413Z,62.76
2016-09-29T10:56:24.447Z,62.85
2016-09-29T10:57:24.423Z,62.08
2016-09-29T10:58:24.492Z,62.27
2016-09-29T10:59:24.520Z,62.37
2016-09-29T11:00:24.556Z,62.08
2016-09-29T11:01:24.580Z,63.24
2016-09-29T11:02:24.616Z,63.14
2016-09-29T11:03:24.635Z,62.76
2016-09-29T11:04:24.650Z,62.85
2016-09-29T11:05:24.683Z,61.98
2016-09-29T11:06:24.405Z,61.63
2016-09-29T11:07:24.735Z,61.33
2016-09-29T11:08:24.762Z,60.75
2016-09-29T11:09:24.791Z,61.43
2016-09-29T11:10:24.867Z,61.43
2016-09-29T11:11:24.861Z,61.05
2016-09-29T11:12:24.881Z,61.15
2016-09-29T11:13:24.911Z,62.01
2016-09-29T11:14:24.704Z,62.37
2016-09-29T11:15:24.652Z,61.92
2016-09-29T11:16:24.989Z,62.08
2016-09-29T11:17:25.118Z,62.56
2016-09-29T11:18:25.104Z,62.56
2016-09-29T11:19:25.081Z,62.85
2016-09-29T11:20:25.103Z,62.56
2016-09-29T11:21:25.132Z,62.59
2016-09-29T11:22:25.159Z,62.66
2016-09-29T11:23:25.193Z,62.76
2016-09-29T11:24:25.222Z,62.76
2016-09-29T11:25:25.241Z,64.18
2016-09-29T11:26:25.283Z,65.14
2016-09-29T11:27:25.131Z,64.85
2016-09-29T11:28:25.320Z,65.24
2016-09-29T11:29:25.425Z,65.24
2016-09-29T11:30:25.434Z,65.24
2016-09-29T11:31:25.472Z,66.08
2016-09-29T11:32:25.459Z,66.4
2016-09-29T11:33:25.461Z,66.69
2016-09-29T11:34:25.512Z,67.08
2016-09-29T11:35:25.528Z,67.56
2016-09-29T11:36:25.549Z,67.56
2016-09-29T11:37:25.600Z,68.24
2016-09-29T11:38:25.624Z,68.62
2016-09-29T11:39:25.642Z,68.68
2016-09-29T11:40:25.703Z,68.3
2016-09-29T11:41:25.711Z,68.59
2016-09-29T11:42:25.720Z,68.49
2016-09-29T11:43:25.750Z,69.65
2016-09-29T11:44:25.460Z,70.62
2016-09-29T11:45:25.800Z,69.36
2016-09-29T11:46:25.523Z,69.17
2016-09-29T11:47:25.594Z,68.78
2016-09-29T11:48:25.892Z,68.68
2016-09-29T11:49:25.920Z,68.78
2016-09-29T11:50:25.943Z,68.88
2016-09-29T11:51:26.072Z,68.24
2016-09-29T11:52:26.004Z,68.14
2016-09-29T11:53:26.026Z,68.04
2016-09-29T11:54:26.054Z,67.56
2016-09-29T11:55:25.768Z,67.11
2016-09-29T11:56:26.110Z,67.11
2016-09-29T11:57:26.160Z,67.01
2016-09-29T11:58:26.221Z,66.24
2016-09-29T11:59:25.883Z,66.53
2016-09-29T12:00:25.914Z,66.43
2016-09-29T12:01:26.243Z,67.3
2016-09-29T12:02:26.480Z,66.91
2016-09-29T12:03:26.463Z,66.72
2016-09-29T12:04:26.019Z,66.53
2016-09-29T12:05:26.523Z,66.33
2016-09-29T12:06:26.493Z,66.82
2016-09-29T12:07:26.525Z,66.24
2016-09-29T12:08:26.590Z,66.17
2016-09-29T12:09:26.571Z,65.3
2016-09-29T12:10:26.549Z,65.59
2016-09-29T12:11:26.540Z,65.5
2016-09-29T12:12:26.553Z,66.43
2016-09-29T12:13:26.633Z,67.4
2016-09-29T12:14:26.618Z,67.27
2016-09-29T12:15:26.640Z,67.66
2016-09-29T12:16:26.364Z,67.17
2016-09-29T12:17:26.720Z,67.17
2016-09-29T12:18:26.571Z,67.17
2016-09-29T12:19:26.767Z,68.72
2016-09-29T12:20:26.686Z,68.62
2016-09-29T12:21:26.813Z,68.82
2016-09-29T12:22:26.851Z,68.62
2016-09-29T12:23:26.659Z,68.52
2016-09-29T12:24:26.903Z,68.82
2016-09-29T12:25:26.919Z,68.91
2016-09-29T12:26:26.966Z,68.98
2016-09-29T12:27:26.987Z,69.01
2016-09-29T12:28:27.000Z,69.2
2016-09-29T12:29:27.041Z,69.36
2016-09-29T12:30:27.082Z,68.52
2016-09-29T12:31:26.790Z,68.78
2016-09-29T12:32:27.132Z,69.36
2016-09-29T12:33:27.199Z,69.36
2016-09-29T12:34:27.181Z,70.23
2016-09-29T12:35:27.199Z,70.2
2016-09-29T12:36:27.259Z,70.48
2016-09-29T12:37:27.263Z,71.45
2016-09-29T12:38:27.638Z,70.39
2016-09-29T12:39:27.306Z,70.78
2016-09-29T12:40:27.346Z,70.29
2016-09-29T12:41:27.363Z,71.26
2016-09-29T12:42:27.145Z,71.84
2016-09-29T12:43:27.527Z,72.32
2016-09-29T12:44:27.454Z,72
2016-09-29T12:45:27.476Z,73.06
2016-09-29T12:46:27.197Z,73.54
2016-09-29T12:47:27.533Z,73.35
2016-09-29T12:48:27.567Z,73.06
2016-09-29T12:49:27.592Z,73.44
2016-09-29T12:50:27.616Z,72.86
2016-09-29T12:51:27.652Z,73.35
2016-09-29T12:52:27.673Z,73.06
2016-09-29T12:53:27.745Z,73.54
2016-09-29T12:54:27.719Z,73.79
2016-09-29T12:55:27.887Z,74.37